createdAt,value
2019-05-17T00:00:57.146Z,9.22
2019-05-17T00:03:26.938Z,9.32
2019-05-17T00:05:57.037Z,9.30
2019-05-17T00:08:34.369Z,9.36
2019-05-17T00:10:57.040Z,9.29
2019-05-17T00:13:26.832Z,9.29
2019-05-17T00:15:56.623Z,9.29
2019-05-17T00:18:26.454Z,9.27
2019-05-17T00:20:56.985Z,9.44
2019-05-17T00:23:26.882Z,9.25
2019-05-17T00:25:56.405Z,9.24
2019-05-17T00:28:26.906Z,9.24
2019-05-17T00:30:57.139Z,9.32
2019-05-17T00:33:27.205Z,9.35
2019-05-17T00:35:56.242Z,9.35
2019-05-17T00:38:27.222Z,9.30
2019-05-17T00:40:56.484Z,9.33
2019-05-17T00:43:26.245Z,9.32
2019-05-17T00:45:57.286Z,9.23
2019-05-17T00:48:26.456Z,9.33
2019-05-17T00:51:01.253Z,9.35
2019-05-17T00:53:26.899Z,9.31
2019-05-17T00:55:57.348Z,9.33
2019-05-17T00:58:26.346Z,9.23
2019-05-17T01:00:57.153Z,9.25
2019-05-17T01:03:26.939Z,9.35
2019-05-17T01:05:57.243Z,9.35
2019-05-17T01:08:26.547Z,9.31
2019-05-17T01:10:56.574Z,9.26
2019-05-17T01:13:26.678Z,9.27
2019-05-17T01:15:56.729Z,9.37
2019-05-17T01:18:26.931Z,9.34
2019-05-17T01:20:56.798Z,9.26
2019-05-17T01:23:27.111Z,9.24
2019-05-17T01:25:56.717Z,9.21
2019-05-17T01:28:26.974Z,9.25
2019-05-17T01:30:56.953Z,9.19
2019-05-17T01:33:26.447Z,9.23
2019-05-17T01:35:57.215Z,9.26
2019-05-17T01:38:26.986Z,9.30
2019-05-17T01:40:56.458Z,9.24
2019-05-17T01:43:27.201Z,9.24
2019-05-17T01:45:57.279Z,9.30
2019-05-17T01:48:27.088Z,9.28
2019-05-17T01:50:56.810Z,9.16
2019-05-17T01:53:27.061Z,9.17
2019-05-17T01:55:56.841Z,9.30
2019-05-17T01:58:26.993Z,9.21
2019-05-17T02:00:57.333Z,9.15
2019-05-17T02:03:26.796Z,9.18
2019-05-17T02:05:56.654Z,9.13
2019-05-17T02:08:26.437Z,9.19
2019-05-17T02:10:57.226Z,9.12
2019-05-17T02:13:26.789Z,9.09
2019-05-17T02:15:56.445Z,9.17
2019-05-17T02:18:26.618Z,9.15
2019-05-17T02:20:57.075Z,9.14
2019-05-17T02:23:27.036Z,9.19
2019-05-17T02:25:57.135Z,9.01
2019-05-17T02:28:25.786Z,9.06
2019-05-17T02:30:54.468Z,9.07
2019-05-17T02:33:23.626Z,9.07
2019-05-17T02:35:53.628Z,9.13
2019-05-17T02:38:22.536Z,9.13
2019-05-17T02:40:53.627Z,9.09
2019-05-17T02:43:23.603Z,9.10
2019-05-17T02:45:52.751Z,9.06
2019-05-17T02:48:23.345Z,9.03
2019-05-17T02:50:53.293Z,9.06
2019-05-17T02:53:23.012Z,9.00
2019-05-17T02:55:54.004Z,9.07
2019-05-17T02:58:23.372Z,9.08
2019-05-17T03:00:53.190Z,9.04
2019-05-17T03:03:23.643Z,8.99
2019-05-17T03:05:53.546Z,8.95
2019-05-17T03:08:23.435Z,8.95
2019-05-17T03:10:55.265Z,9.01
2019-05-17T03:13:23.722Z,8.98
2019-05-17T03:15:52.913Z,8.95
2019-05-17T03:18:22.892Z,8.94
2019-05-17T03:20:52.475Z,8.86
2019-05-17T03:23:23.445Z,8.81
2019-05-17T03:25:52.397Z,8.89
2019-05-17T03:28:23.562Z,8.92
2019-05-17T03:30:56.877Z,8.91
2019-05-17T03:33:27.092Z,8.89
2019-05-17T03:35:56.970Z,9.00
2019-05-17T03:38:25.765Z,9.02
2019-05-17T03:41:12.006Z,9.05
2019-05-17T03:43:24.428Z,9.03
2019-05-17T03:45:54.516Z,9.00
2019-05-17T03:48:22.946Z,9.04
2019-05-17T03:50:53.139Z,9.07
2019-05-17T03:53:22.949Z,9.07
2019-05-17T03:55:54.045Z,9.11
2019-05-17T03:58:23.477Z,9.05
2019-05-17T04:00:54.571Z,9.09
2019-05-17T04:03:24.618Z,9.11
2019-05-17T04:05:53.373Z,9.10
2019-05-17T04:08:22.861Z,9.11
2019-05-17T04:10:52.966Z,9.10
2019-05-17T04:13:23.461Z,9.15
2019-05-17T04:15:53.377Z,9.19
2019-05-17T04:18:23.511Z,9.18
2019-05-17T04:20:52.793Z,9.24
2019-05-17T04:23:23.292Z,9.21
2019-05-17T04:25:53.020Z,9.16
2019-05-17T04:28:22.982Z,9.28
2019-05-17T04:30:53.192Z,9.37
2019-05-17T04:33:23.199Z,9.23
2019-05-17T04:35:54.068Z,9.31
2019-05-17T04:38:23.687Z,9.24
2019-05-17T04:40:55.309Z,9.26
2019-05-17T04:43:23.828Z,9.31
2019-05-17T04:45:53.681Z,9.22
2019-05-17T04:48:23.235Z,9.39
2019-05-17T04:50:53.700Z,9.44
2019-05-17T04:53:23.332Z,9.41
2019-05-17T04:55:54.045Z,9.49
2019-05-17T04:58:23.187Z,9.51
2019-05-17T05:00:53.698Z,9.46
2019-05-17T05:03:23.092Z,9.42
2019-05-17T05:05:53.594Z,9.37
2019-05-17T05:08:22.530Z,9.44
2019-05-17T05:10:53.488Z,9.47
2019-05-17T05:13:22.809Z,9.51
2019-05-17T05:15:52.197Z,9.60
2019-05-17T05:18:22.179Z,9.58
2019-05-17T05:20:52.673Z,9.53
2019-05-17T05:23:23.893Z,9.49
2019-05-17T05:25:54.153Z,9.65
2019-05-17T05:28:22.670Z,9.66
2019-05-17T05:30:52.703Z,9.83
2019-05-17T05:33:22.155Z,9.80
2019-05-17T05:35:51.685Z,9.60
2019-05-17T05:38:21.732Z,9.65
2019-05-17T05:40:52.340Z,9.61
2019-05-17T05:43:22.770Z,9.67
2019-05-17T05:45:53.468Z,9.63
2019-05-17T05:48:21.789Z,9.64
2019-05-17T05:50:53.278Z,9.71
2019-05-17T05:53:21.979Z,9.73
2019-05-17T05:55:51.830Z,9.78
2019-05-17T05:58:23.587Z,9.72
2019-05-17T06:00:52.914Z,9.69
2019-05-17T06:03:23.289Z,9.80
2019-05-17T06:05:52.484Z,9.90
2019-05-17T06:08:22.711Z,9.82
2019-05-17T06:10:53.132Z,9.99
2019-05-17T06:13:21.901Z,10.03
2019-05-17T06:15:54.673Z,10.16
2019-05-17T06:18:25.057Z,10.32
2019-05-17T06:20:53.477Z,10.64
2019-05-17T06:23:23.446Z,10.53
2019-05-17T06:25:54.135Z,10.30
2019-05-17T06:28:25.201Z,10.51
2019-05-17T06:30:55.802Z,10.33
2019-05-17T06:33:30.886Z,10.18
2019-05-17T06:36:02.677Z,10.53
2019-05-17T06:38:33.129Z,10.68
2019-05-17T06:41:06.569Z,10.37
2019-05-17T06:43:38.485Z,10.40
2019-05-17T06:46:06.907Z,10.46
2019-05-17T06:48:43.970Z,10.38
2019-05-17T06:51:13.581Z,10.44
2019-05-17T06:53:46.401Z,10.48
2019-05-17T06:56:14.939Z,10.47
2019-05-17T06:58:43.448Z,10.38
2019-05-17T07:01:15.967Z,10.43
2019-05-17T07:03:44.473Z,10.56
2019-05-17T07:06:14.549Z,10.45
2019-05-17T07:08:43.071Z,10.52
2019-05-17T07:11:11.746Z,10.66
2019-05-17T07:13:40.244Z,10.91
2019-05-17T07:16:10.221Z,10.83
2019-05-17T07:18:39.977Z,10.82
2019-05-17T07:21:10.034Z,10.85
2019-05-17T07:23:40.343Z,10.73
2019-05-17T07:26:11.815Z,10.84
2019-05-17T07:28:40.444Z,10.79
2019-05-17T07:31:10.127Z,10.67
2019-05-17T07:33:39.883Z,10.75
2019-05-17T07:36:10.199Z,10.77
2019-05-17T07:38:39.638Z,10.71
2019-05-17T07:41:10.138Z,10.75
2019-05-17T07:43:40.303Z,10.80
2019-05-17T07:46:09.580Z,10.86
2019-05-17T07:48:40.305Z,10.77
2019-05-17T07:51:10.138Z,10.68
2019-05-17T07:53:40.099Z,10.90
2019-05-17T07:56:10.448Z,10.85
2019-05-17T07:58:40.389Z,10.81
2019-05-17T08:01:10.030Z,10.94
2019-05-17T08:03:40.610Z,10.92
2019-05-17T08:06:10.546Z,10.98
2019-05-17T08:08:40.975Z,11.10
2019-05-17T08:11:10.581Z,11.17
2019-05-17T08:13:39.864Z,11.11
2019-05-17T08:16:10.292Z,11.34
2019-05-17T08:18:40.235Z,11.34
2019-05-17T08:21:10.402Z,11.45
2019-05-17T08:23:40.097Z,11.48
2019-05-17T08:26:10.495Z,11.27
2019-05-17T08:28:40.398Z,11.53
2019-05-17T08:31:09.924Z,11.54
2019-05-17T08:33:40.472Z,11.82
2019-05-17T08:36:09.274Z,11.76
2019-05-17T08:38:39.387Z,11.69
2019-05-17T08:41:10.343Z,11.65
2019-05-17T08:43:45.746Z,11.98
2019-05-17T08:46:10.542Z,11.88
2019-05-17T08:48:40.187Z,11.63
2019-05-17T08:51:10.779Z,11.97
2019-05-17T08:53:39.891Z,11.80
2019-05-17T08:56:10.213Z,11.88
2019-05-17T08:58:40.351Z,11.59
2019-05-17T09:01:11.253Z,11.88
2019-05-17T09:03:41.038Z,11.98
2019-05-17T09:06:12.448Z,11.90
2019-05-17T09:08:40.561Z,12.01
2019-05-17T09:11:09.880Z,12.27
2019-05-17T09:13:41.258Z,11.92
2019-05-17T09:16:10.711Z,11.92
2019-05-17T09:18:39.561Z,11.81
2019-05-17T09:21:09.713Z,12.15
2019-05-17T09:23:39.624Z,12.13
2019-05-17T09:26:11.318Z,12.49
2019-05-17T09:28:39.769Z,12.22
2019-05-17T09:31:10.370Z,12.20
2019-05-17T09:33:40.457Z,12.37
2019-05-17T09:36:10.123Z,12.31
2019-05-17T09:38:40.377Z,12.34
2019-05-17T09:41:09.435Z,12.56
2019-05-17T09:43:40.067Z,12.35
2019-05-17T09:46:10.696Z,12.30
2019-05-17T09:48:39.819Z,12.15
2019-05-17T09:51:10.281Z,12.13
2019-05-17T09:53:40.143Z,12.22
2019-05-17T09:56:09.959Z,12.07
2019-05-17T09:58:39.672Z,12.20
2019-05-17T10:01:09.437Z,12.31
2019-05-17T10:03:39.752Z,12.49
2019-05-17T10:06:09.641Z,12.60
2019-05-17T10:08:39.417Z,12.93
2019-05-17T10:11:11.262Z,12.48
2019-05-17T10:13:38.115Z,12.56
2019-05-17T10:16:10.109Z,12.38
2019-05-17T10:18:40.089Z,12.46
2019-05-17T10:21:10.484Z,12.44
2019-05-17T10:23:40.648Z,12.40
2019-05-17T10:26:10.723Z,12.45
2019-05-17T10:28:40.026Z,12.65
2019-05-17T10:31:11.251Z,12.74
2019-05-17T10:33:40.086Z,12.53
2019-05-17T10:36:08.628Z,12.51
2019-05-17T10:38:39.623Z,12.44
2019-05-17T10:41:10.114Z,12.52
2019-05-17T10:43:39.289Z,12.40
2019-05-17T10:46:10.339Z,12.61
2019-05-17T10:48:41.125Z,12.51
2019-05-17T10:51:10.088Z,12.70
2019-05-17T10:53:40.313Z,12.88
2019-05-17T10:56:09.986Z,13.34
2019-05-17T10:58:39.975Z,13.46
2019-05-17T11:01:10.297Z,13.40
2019-05-17T11:03:39.715Z,13.88
2019-05-17T11:06:10.819Z,13.61
2019-05-17T11:08:38.690Z,13.27
2019-05-17T11:11:07.104Z,13.23
2019-05-17T11:13:35.611Z,13.25
2019-05-17T11:16:04.082Z,13.26
2019-05-17T11:18:32.547Z,13.20
2019-05-17T11:21:01.013Z,13.05
2019-05-17T11:23:29.532Z,13.23
2019-05-17T11:25:59.530Z,13.17
2019-05-17T11:28:28.105Z,13.11
2019-05-17T11:31:02.653Z,13.06
2019-05-17T11:33:31.094Z,13.10
2019-05-17T11:35:59.641Z,13.04
2019-05-17T11:38:28.072Z,13.02
2019-05-17T11:40:56.549Z,13.05
2019-05-17T11:43:25.055Z,13.05
2019-05-17T11:45:53.488Z,12.97
2019-05-17T11:48:21.939Z,13.01
2019-05-17T11:50:50.388Z,13.06
2019-05-17T11:53:20.492Z,13.20
2019-05-17T11:55:49.035Z,13.10
2019-05-17T11:58:17.481Z,13.28
2019-05-17T12:00:45.902Z,13.44
2019-05-17T12:03:14.355Z,13.83
2019-05-17T12:05:42.905Z,14.04
2019-05-17T12:08:11.339Z,14.43
2019-05-17T12:10:39.824Z,14.58
2019-05-17T12:13:08.368Z,15.05
2019-05-17T12:15:44.817Z,14.93
2019-05-17T12:18:07.005Z,15.26
2019-05-17T12:20:38.808Z,14.71
2019-05-17T12:23:07.244Z,14.64
2019-05-17T12:25:35.774Z,14.70
2019-05-17T12:28:04.292Z,14.47
2019-05-17T12:30:32.933Z,14.48
2019-05-17T12:33:01.374Z,15.14
2019-05-17T12:35:29.847Z,15.17
2019-05-17T12:37:59.479Z,14.86
2019-05-17T12:40:29.657Z,14.78
2019-05-17T12:42:58.093Z,14.64
2019-05-17T12:45:26.671Z,14.32
2019-05-17T12:47:55.126Z,14.00
2019-05-17T12:50:23.652Z,14.38
2019-05-17T12:52:55.174Z,14.33
2019-05-17T12:55:23.655Z,14.22
2019-05-17T12:57:52.092Z,14.61
2019-05-17T13:00:21.179Z,14.79
2019-05-17T13:02:50.232Z,14.99
2019-05-17T13:05:18.837Z,14.90
2019-05-17T13:07:47.261Z,15.00
2019-05-17T13:10:18.275Z,15.03
2019-05-17T13:12:46.751Z,15.57
2019-05-17T13:15:23.074Z,15.74
2019-05-17T13:17:46.693Z,15.92
2019-05-17T13:20:16.598Z,15.55
2019-05-17T13:22:45.124Z,15.61
2019-05-17T13:25:13.869Z,15.80
2019-05-17T13:27:47.367Z,15.98
2019-05-17T13:30:15.648Z,15.75
2019-05-17T13:32:44.145Z,15.36
2019-05-17T13:35:13.693Z,15.87
2019-05-17T13:37:42.111Z,15.53
2019-05-17T13:40:12.999Z,15.25
2019-05-17T13:42:41.046Z,15.50
2019-05-17T13:45:10.933Z,15.37
2019-05-17T13:47:39.407Z,15.63
2019-05-17T13:50:08.737Z,15.66
2019-05-17T13:52:37.281Z,15.49
2019-05-17T13:55:07.037Z,15.19
2019-05-17T13:57:35.506Z,15.25
2019-05-17T14:00:07.462Z,15.36
2019-05-17T14:02:35.912Z,15.22
2019-05-17T14:05:06.780Z,15.53
2019-05-17T14:07:34.480Z,15.32
2019-05-17T14:10:03.368Z,15.23
2019-05-17T14:12:31.778Z,15.29
2019-05-17T14:15:00.236Z,15.62
2019-05-17T14:17:29.035Z,15.72
2019-05-17T14:19:57.477Z,15.56
2019-05-17T14:22:25.883Z,15.49
2019-05-17T14:24:54.346Z,15.37
2019-05-17T14:27:22.774Z,15.59
2019-05-17T14:29:51.330Z,15.15
2019-05-17T14:32:19.873Z,15.24
2019-05-17T14:34:48.337Z,15.21
2019-05-17T14:37:16.786Z,15.31
2019-05-17T14:39:45.325Z,15.17
2019-05-17T14:42:15.385Z,15.22
2019-05-17T14:49:52.540Z,15.69
2019-05-17T14:52:20.962Z,15.65
2019-05-17T14:54:49.681Z,15.84
2019-05-17T14:57:18.186Z,15.72
2019-05-17T14:59:46.664Z,15.86
2019-05-17T15:02:15.117Z,16.14
2019-05-17T15:04:43.574Z,16.36
2019-05-17T15:07:12.124Z,15.74
2019-05-17T15:09:40.594Z,16.24
2019-05-17T15:12:09.145Z,16.59
2019-05-17T15:14:37.613Z,16.38
2019-05-17T15:17:22.139Z,16.49
2019-05-17T15:20:25.708Z,16.54
2019-05-17T15:26:21.623Z,15.95
2019-05-17T15:28:50.079Z,16.09
2019-05-17T15:31:18.565Z,15.73
2019-05-17T15:33:48.663Z,15.96
2019-05-17T15:36:22.841Z,16.13
2019-05-17T15:38:51.345Z,15.94
2019-05-17T15:41:19.825Z,15.65
2019-05-17T15:43:48.380Z,15.84
2019-05-17T15:46:18.545Z,15.70
2019-05-17T15:48:47.020Z,15.59
2019-05-17T15:51:15.476Z,15.99
2019-05-17T15:53:44.010Z,15.93
2019-05-17T15:56:12.433Z,16.06
2019-05-17T15:58:40.880Z,15.99
2019-05-17T16:01:09.349Z,15.94
2019-05-17T16:03:37.831Z,15.86
2019-05-17T16:06:07.798Z,15.83
2019-05-17T16:08:36.259Z,16.05
2019-05-17T16:11:04.838Z,15.99
2019-05-17T16:13:33.961Z,16.29
2019-05-17T16:16:04.165Z,15.86
2019-05-17T16:18:34.981Z,15.97
2019-05-17T16:21:04.178Z,15.68
2019-05-17T16:23:32.681Z,15.75
2019-05-17T16:26:01.472Z,15.68
2019-05-17T16:28:29.956Z,15.72
2019-05-17T16:31:00.474Z,15.94
2019-05-17T16:33:30.637Z,15.62
2019-05-17T16:35:59.059Z,15.74
2019-05-17T16:38:27.518Z,15.81
2019-05-17T16:40:56.000Z,15.60
2019-05-17T16:43:24.442Z,15.55
2019-05-17T16:45:52.910Z,15.38
2019-05-17T16:48:21.451Z,15.46
2019-05-17T16:50:49.926Z,15.40
2019-05-17T16:53:18.416Z,15.30
2019-05-17T16:55:46.930Z,15.24
2019-05-17T16:58:16.951Z,15.03
2019-05-17T17:00:51.390Z,15.06
2019-05-17T17:03:19.919Z,14.97
2019-05-17T17:05:48.369Z,14.87
2019-05-17T17:08:16.822Z,14.96
2019-05-17T17:10:45.326Z,14.71
2019-05-17T17:13:13.772Z,14.73
2019-05-17T17:15:42.226Z,14.81
2019-05-17T17:18:10.723Z,14.69
2019-05-17T17:20:39.232Z,14.70
2019-05-17T17:23:10.197Z,14.69
2019-05-17T17:25:38.687Z,14.72
2019-05-17T17:28:07.161Z,14.77
2019-05-17T17:30:37.993Z,14.65
2019-05-17T17:33:05.760Z,14.61
2019-05-17T17:35:34.265Z,14.64
2019-05-17T17:38:02.737Z,14.75
2019-05-17T17:40:31.269Z,14.74
2019-05-17T17:42:59.724Z,14.76
2019-05-17T17:45:28.338Z,14.76
2019-05-17T17:47:56.783Z,14.81
2019-05-17T17:50:25.265Z,14.64
2019-05-17T17:52:53.933Z,14.71
2019-05-17T17:55:22.507Z,14.63
2019-05-17T17:57:51.382Z,14.66
2019-05-17T18:00:20.646Z,14.66
2019-05-17T18:02:49.138Z,14.62
2019-05-17T18:05:17.719Z,14.38
2019-05-17T18:07:46.253Z,14.29
2019-05-17T18:10:26.809Z,14.23
2019-05-17T18:12:55.268Z,14.13
2019-05-17T18:15:38.798Z,14.10
2019-05-17T18:18:07.207Z,14.10
2019-05-17T18:20:35.764Z,13.97
2019-05-17T18:23:04.388Z,14.04
2019-05-17T18:25:33.015Z,13.91
2019-05-17T18:28:01.478Z,13.95
2019-05-17T18:31:03.261Z,13.88
2019-05-17T18:33:33.836Z,13.80
2019-05-17T18:36:02.335Z,13.75
2019-05-17T18:38:32.689Z,13.70
2019-05-17T18:41:01.143Z,13.68
2019-05-17T18:43:29.603Z,13.60
2019-05-17T18:45:58.064Z,13.57
2019-05-17T18:48:26.490Z,13.49
2019-05-17T18:50:54.925Z,13.46
2019-05-17T18:53:23.356Z,13.39
2019-05-17T18:55:54.913Z,13.33
2019-05-17T18:58:23.333Z,13.34
2019-05-17T19:00:51.782Z,13.37
2019-05-17T19:03:20.232Z,13.28
2019-05-17T19:05:48.681Z,13.20
2019-05-17T19:08:17.226Z,13.20
2019-05-17T19:10:45.725Z,13.12
2019-05-17T19:13:14.201Z,13.10
2019-05-17T19:15:42.671Z,13.04
2019-05-17T19:18:11.669Z,13.00
2019-05-17T19:20:40.174Z,13.01
2019-05-17T19:23:09.703Z,12.93
2019-05-17T19:25:39.907Z,12.85
2019-05-17T19:28:08.411Z,12.88
2019-05-17T19:30:36.864Z,12.70
2019-05-17T19:33:05.951Z,12.62
2019-05-17T19:35:35.204Z,12.61
2019-05-17T19:38:07.456Z,12.59
2019-05-17T19:40:35.915Z,12.58
2019-05-17T19:43:04.404Z,12.55
2019-05-17T19:45:32.858Z,12.54
2019-05-17T19:48:01.360Z,12.49
2019-05-17T19:50:30.176Z,12.46
2019-05-17T19:52:58.646Z,12.50
2019-05-17T19:55:27.996Z,12.45
2019-05-17T19:57:56.558Z,12.44
2019-05-17T20:00:25.151Z,12.43
2019-05-17T20:02:53.616Z,12.42
2019-05-17T20:05:22.030Z,12.40
2019-05-17T20:07:51.718Z,12.45
2019-05-17T20:10:23.225Z,12.42
2019-05-17T20:12:51.466Z,12.44
2019-05-17T20:15:33.625Z,12.41
2019-05-17T20:17:50.029Z,12.42
2019-05-17T20:20:18.599Z,12.45
2019-05-17T20:22:48.681Z,12.52
2019-05-17T20:25:17.457Z,12.52
2019-05-17T20:27:45.894Z,12.54
2019-05-17T20:30:17.209Z,12.53
2019-05-17T20:32:54.231Z,12.53
2019-05-17T20:35:37.656Z,12.56
2019-05-17T20:38:06.950Z,12.49
2019-05-17T20:40:36.400Z,12.64
2019-05-17T20:43:13.984Z,12.60
2019-05-17T20:45:44.128Z,12.63
2019-05-17T20:48:14.190Z,12.61
2019-05-17T20:50:46.381Z,12.61
2019-05-17T20:53:18.863Z,12.61
2019-05-17T20:55:46.466Z,12.70
2019-05-17T20:58:14.916Z,12.72
2019-05-17T21:00:46.512Z,12.51
2019-05-17T21:03:15.070Z,12.56
2019-05-17T21:05:45.205Z,12.13
2019-05-17T21:08:15.225Z,12.02
2019-05-17T21:10:45.123Z,11.97
2019-05-17T21:13:13.580Z,11.89
2019-05-17T21:15:47.749Z,11.89
2019-05-17T21:18:14.459Z,11.82
2019-05-17T21:20:42.923Z,11.79
2019-05-17T21:23:11.381Z,11.75
2019-05-17T21:25:39.817Z,11.74
2019-05-17T21:28:08.722Z,11.71
2019-05-17T21:30:37.181Z,11.67
2019-05-17T21:33:05.721Z,11.65
2019-05-17T21:35:34.129Z,11.65
2019-05-17T21:38:04.043Z,11.63
2019-05-17T21:40:33.059Z,11.76
2019-05-17T21:43:01.514Z,11.72
2019-05-17T21:45:29.959Z,11.64
2019-05-17T21:47:58.451Z,11.68
2019-05-17T21:50:26.861Z,11.72
2019-05-17T21:52:55.338Z,11.68
2019-05-17T21:55:23.811Z,11.68
2019-05-17T21:57:52.297Z,11.70
2019-05-17T22:00:51.134Z,11.66
2019-05-17T22:03:19.712Z,11.58
2019-05-17T22:05:48.280Z,11.52
2019-05-17T22:08:16.733Z,11.52
2019-05-17T22:10:46.326Z,11.52
2019-05-17T22:13:14.785Z,11.54
2019-05-17T22:15:43.265Z,11.54
2019-05-17T22:18:11.721Z,11.48
2019-05-17T22:20:40.131Z,11.67
2019-05-17T22:23:08.582Z,11.77
2019-05-17T22:25:37.065Z,11.58
2019-05-17T22:28:05.615Z,11.58
2019-05-17T22:30:34.073Z,11.55
2019-05-17T22:33:02.510Z,11.55
2019-05-17T22:35:30.940Z,11.53
2019-05-17T22:37:59.432Z,11.40
2019-05-17T22:40:27.845Z,11.32
2019-05-17T22:42:56.488Z,11.39
2019-05-17T22:45:24.953Z,11.26
2019-05-17T22:47:53.368Z,11.32
2019-05-17T22:50:21.806Z,11.22
2019-05-17T22:52:51.938Z,11.02
2019-05-17T22:55:20.391Z,10.98
2019-05-17T22:57:48.863Z,10.85
2019-05-17T23:00:17.713Z,10.80
2019-05-17T23:02:46.141Z,10.78
2019-05-17T23:05:14.669Z,10.84
2019-05-17T23:07:43.090Z,10.79
2019-05-17T23:10:11.741Z,10.73
2019-05-17T23:12:40.229Z,10.75
2019-05-17T23:15:09.225Z,10.72
2019-05-17T23:17:37.697Z,10.74
2019-05-17T23:20:06.920Z,10.70
2019-05-17T23:22:35.372Z,10.65
2019-05-17T23:25:05.269Z,10.55
2019-05-17T23:27:33.702Z,10.55
2019-05-17T23:30:02.128Z,10.50
2019-05-17T23:32:30.599Z,10.44
2019-05-17T23:34:59.055Z,10.36
2019-05-17T23:37:27.494Z,10.41
2019-05-17T23:39:56.012Z,10.40
2019-05-17T23:42:24.447Z,10.42
2019-05-17T23:44:55.203Z,10.46
2019-05-17T23:47:23.620Z,10.53
2019-05-17T23:49:52.146Z,10.46
2019-05-17T23:52:20.529Z,10.44
2019-05-17T23:54:49.021Z,10.44
2019-05-17T23:57:17.633Z,10.37
2019-05-17T23:59:46.122Z,10.42
